createdAt,value
2023-01-29T00:02:01.572Z,97214.00
2023-01-29T00:06:06.796Z,97212.00
2023-01-29T00:10:11.473Z,97194.00
2023-01-29T00:14:14.963Z,97195.00
2023-01-29T00:18:19.370Z,97192.00
2023-01-29T00:22:27.976Z,97194.00
2023-01-29T00:26:33.414Z,97201.00
2023-01-29T00:30:39.114Z,97197.00
2023-01-29T00:34:43.887Z,97194.00
2023-01-29T00:38:54.844Z,97194.00
2023-01-29T00:43:16.391Z,97177.00
2023-01-29T00:47:33.559Z,97182.00
2023-01-29T00:51:39.250Z,97183.00
2023-01-29T00:55:45.902Z,97181.00
2023-01-29T00:59:48.953Z,97176.00
2023-01-29T01:03:53.433Z,97174.00
2023-01-29T01:07:59.746Z,97175.00
2023-01-29T01:12:03.103Z,97180.00
2023-01-29T01:16:15.121Z,97179.00
2023-01-29T01:20:19.233Z,97166.00
2023-01-29T01:24:23.831Z,97173.00
2023-01-29T01:28:27.351Z,97179.00
2023-01-29T01:32:30.458Z,97177.00
2023-01-29T01:36:36.453Z,97167.00
2023-01-29T01:40:48.148Z,97164.00
2023-01-29T01:44:58.691Z,97160.00
2023-01-29T01:49:13.274Z,97165.00
2023-01-29T01:53:20.464Z,97146.00
2023-01-29T01:57:26.796Z,97147.00
2023-01-29T02:01:42.975Z,97144.00
2023-01-29T02:06:03.551Z,97148.00
2023-01-29T02:10:14.344Z,97163.00
2023-01-29T02:14:23.041Z,97167.00
2023-01-29T02:18:26.066Z,97162.00
2023-01-29T02:22:55.074Z,97162.00
2023-01-29T02:27:07.666Z,97176.00
2023-01-29T02:31:25.800Z,97165.00
2023-01-29T02:35:37.637Z,97178.00
2023-01-29T02:39:46.715Z,97174.00
2023-01-29T02:43:56.886Z,97166.00
2023-01-29T02:48:06.357Z,97177.00
2023-01-29T02:52:19.090Z,97168.00
2023-01-29T02:56:28.303Z,97163.00
2023-01-29T03:00:37.049Z,97167.00
2023-01-29T03:04:47.785Z,97164.00
2023-01-29T03:08:58.827Z,97162.00
2023-01-29T03:13:05.675Z,97164.00
2023-01-29T03:17:11.904Z,97164.00
2023-01-29T03:21:41.681Z,97149.00
2023-01-29T03:26:03.089Z,97153.00
2023-01-29T03:30:26.296Z,97159.00
2023-01-29T03:34:39.009Z,97164.00
2023-01-29T03:38:43.926Z,97161.00
2023-01-29T03:42:58.892Z,97174.00
2023-01-29T03:47:13.891Z,97177.00
2023-01-29T03:51:25.977Z,97189.00
2023-01-29T03:55:38.590Z,97198.00
2023-01-29T03:59:51.010Z,97198.00
2023-01-29T04:04:02.189Z,97198.00
2023-01-29T04:08:17.721Z,97194.00
2023-01-29T04:12:27.650Z,97194.00
2023-01-29T04:16:38.851Z,97185.00
2023-01-29T04:20:44.276Z,97185.00
2023-01-29T04:24:48.650Z,97190.00
2023-01-29T04:29:17.207Z,97200.00
2023-01-29T04:33:33.376Z,97187.00
2023-01-29T04:37:45.576Z,97193.00
2023-01-29T04:41:56.937Z,97189.00
2023-01-29T04:46:15.564Z,97201.00
2023-01-29T04:50:30.033Z,97208.00
2023-01-29T04:54:51.433Z,97197.00
2023-01-29T04:58:59.541Z,97200.00
2023-01-29T05:03:08.258Z,97191.00
2023-01-29T05:07:17.360Z,97184.00
2023-01-29T05:11:21.625Z,97168.00
2023-01-29T05:15:27.187Z,97171.00
2023-01-29T05:19:31.696Z,97163.00
2023-01-29T05:23:34.849Z,97166.00
2023-01-29T05:27:56.167Z,97172.00
2023-01-29T05:31:59.367Z,97164.00
2023-01-29T05:36:04.163Z,97162.00
2023-01-29T05:40:14.382Z,97171.00
2023-01-29T05:44:17.810Z,97174.00
2023-01-29T05:48:23.797Z,97190.00
2023-01-29T05:52:31.812Z,97188.00
2023-01-29T05:56:34.868Z,97177.00
2023-01-29T06:00:38.176Z,97179.00
2023-01-29T06:04:41.474Z,97176.00
2023-01-29T06:08:46.005Z,97164.00
2023-01-29T06:12:50.861Z,97147.00
2023-01-29T06:16:56.420Z,97147.00
2023-01-29T06:21:06.331Z,97143.00
2023-01-29T06:25:14.347Z,97131.00
2023-01-29T06:29:20.109Z,97130.00
2023-01-29T06:33:25.559Z,97127.00
2023-01-29T06:37:28.676Z,97137.00
2023-01-29T06:41:33.462Z,97128.00
2023-01-29T06:45:39.499Z,97144.00
2023-01-29T06:49:42.578Z,97156.00
2023-01-29T06:53:46.648Z,97154.00
2023-01-29T06:57:51.270Z,97158.00
2023-01-29T07:01:54.371Z,97157.00
2023-01-29T07:06:01.757Z,97170.00
2023-01-29T07:10:05.806Z,97180.00
2023-01-29T07:14:10.429Z,97181.00
2023-01-29T07:18:18.371Z,97185.00
2023-01-29T07:22:24.359Z,97183.00
2023-01-29T07:26:27.547Z,97179.00
2023-01-29T07:30:32.503Z,97173.00
2023-01-29T07:34:35.529Z,97177.00
2023-01-29T07:38:38.953Z,97186.00
2023-01-29T07:42:44.109Z,97189.00
2023-01-29T07:46:48.982Z,97185.00
2023-01-29T07:50:58.512Z,97191.00
2023-01-29T07:55:01.886Z,97186.00
2023-01-29T07:59:04.918Z,97194.00
2023-01-29T08:03:13.739Z,97194.00
2023-01-29T08:07:17.042Z,97206.00
2023-01-29T08:11:20.039Z,97211.00
2023-01-29T08:15:23.333Z,97219.00
2023-01-29T08:19:28.039Z,97228.00
2023-01-29T08:23:31.189Z,97219.00
2023-01-29T08:27:38.206Z,97215.00
2023-01-29T08:31:43.868Z,97218.00
2023-01-29T08:35:51.760Z,97231.00
2023-01-29T08:39:54.870Z,97234.00
2023-01-29T08:44:02.794Z,97239.00
2023-01-29T08:48:09.938Z,97246.00
2023-01-29T08:52:14.439Z,97249.00
2023-01-29T08:56:17.525Z,97260.00
2023-01-29T09:00:21.321Z,97260.00
2023-01-29T09:04:25.055Z,97268.00
2023-01-29T09:08:29.585Z,97269.00
2023-01-29T09:12:32.666Z,97265.00
2023-01-29T09:16:38.231Z,97268.00
2023-01-29T09:20:41.618Z,97260.00
2023-01-29T09:24:46.254Z,97249.00
2023-01-29T09:28:50.365Z,97248.00
2023-01-29T09:32:54.681Z,97253.00
2023-01-29T09:37:00.676Z,97259.00
2023-01-29T09:41:16.397Z,97252.00
2023-01-29T09:45:29.456Z,97243.00
2023-01-29T09:49:37.608Z,97235.00
2023-01-29T09:53:48.858Z,97233.00
2023-01-29T09:57:57.275Z,97218.00
2023-01-29T10:02:10.428Z,97215.00
2023-01-29T10:06:32.388Z,97224.00
2023-01-29T10:10:46.954Z,97217.00
2023-01-29T10:15:11.381Z,97215.00
2023-01-29T10:19:38.272Z,97210.00
2023-01-29T10:23:48.462Z,97209.00
2023-01-29T10:27:54.295Z,97211.00
2023-01-29T10:32:06.029Z,97213.00
2023-01-29T10:36:14.441Z,97211.00
2023-01-29T10:40:22.087Z,97209.00
2023-01-29T10:44:36.765Z,97193.00
2023-01-29T10:48:59.908Z,97192.00
2023-01-29T10:53:18.884Z,97183.00
2023-01-29T10:57:39.329Z,97184.00
2023-01-29T11:01:42.699Z,97172.00
2023-01-29T11:05:54.363Z,97160.00
2023-01-29T11:10:03.833Z,97177.00
2023-01-29T11:14:12.680Z,97165.00
2023-01-29T11:18:16.367Z,97160.00
2023-01-29T11:22:26.993Z,97172.00
2023-01-29T11:26:36.947Z,97182.00
2023-01-29T11:30:42.695Z,97173.00
2023-01-29T11:34:59.757Z,97171.00
2023-01-29T11:39:22.948Z,97145.00
2023-01-29T11:43:35.393Z,97126.00
2023-01-29T11:47:38.674Z,97123.00
2023-01-29T11:51:43.016Z,97122.00
2023-01-29T11:55:54.498Z,97117.00
2023-01-29T12:00:04.269Z,97107.00
2023-01-29T12:04:20.744Z,97090.00
2023-01-29T12:08:24.735Z,97095.00
2023-01-29T12:12:36.056Z,97103.00
2023-01-29T12:16:49.298Z,97083.00
2023-01-29T12:20:59.666Z,97082.00
2023-01-29T12:25:09.078Z,97079.00
2023-01-29T12:29:28.748Z,97089.00
2023-01-29T12:33:44.293Z,97083.00
2023-01-29T12:37:53.397Z,97069.00
2023-01-29T12:42:01.130Z,97061.00
2023-01-29T12:46:09.840Z,97053.00
2023-01-29T12:50:22.348Z,97065.00
2023-01-29T12:54:34.483Z,97051.00
2023-01-29T12:58:48.565Z,97048.00
2023-01-29T13:02:59.135Z,97034.00
2023-01-29T13:07:12.255Z,97030.00
2023-01-29T13:11:22.633Z,97019.00
2023-01-29T13:15:33.687Z,97027.00
2023-01-29T13:19:43.334Z,97024.00
2023-01-29T13:23:53.972Z,97027.00
2023-01-29T13:27:57.159Z,97021.00
2023-01-29T13:32:02.138Z,97017.00
2023-01-29T13:36:16.781Z,97009.00
2023-01-29T13:40:25.592Z,97013.00
2023-01-29T13:44:32.992Z,97023.00
2023-01-29T13:48:42.324Z,97033.00
2023-01-29T13:52:53.756Z,97042.00
2023-01-29T13:57:02.106Z,97038.00
2023-01-29T14:01:05.435Z,97043.00
2023-01-29T14:05:43.724Z,97023.00
2023-01-29T14:10:14.359Z,97018.00
2023-01-29T14:15:03.342Z,97007.00
2023-01-29T14:19:20.426Z,97006.00
2023-01-29T14:23:31.108Z,96991.00
2023-01-29T14:27:39.361Z,96990.00
2023-01-29T14:31:50.572Z,96993.00
2023-01-29T14:35:56.411Z,96998.00
2023-01-29T14:40:11.316Z,97000.00
2023-01-29T14:44:50.007Z,96996.00
2023-01-29T14:48:54.491Z,96996.00
2023-01-29T14:53:14.668Z,97001.00
2023-01-29T14:57:20.997Z,96988.00
2023-01-29T15:01:27.182Z,96981.00
2023-01-29T15:05:37.431Z,96978.00
2023-01-29T15:09:49.165Z,96969.00
2023-01-29T15:13:56.598Z,96965.00
2023-01-29T15:18:09.320Z,96972.00
2023-01-29T15:22:15.463Z,96971.00
2023-01-29T15:26:21.035Z,96965.00
2023-01-29T15:30:30.411Z,96956.00
2023-01-29T15:34:33.762Z,96957.00
2023-01-29T15:38:38.188Z,96960.00
2023-01-29T15:42:49.010Z,96967.00
2023-01-29T15:46:58.034Z,96958.00
2023-01-29T15:51:05.342Z,96969.00
2023-01-29T15:55:16.104Z,96952.00
2023-01-29T15:59:26.231Z,96955.00
2023-01-29T16:03:34.747Z,96959.00
2023-01-29T16:07:38.839Z,96961.00
2023-01-29T16:11:44.267Z,96955.00
2023-01-29T16:15:57.079Z,96957.00
2023-01-29T16:20:03.890Z,96950.00
2023-01-29T16:24:11.889Z,96948.00
2023-01-29T16:28:18.690Z,96955.00
2023-01-29T16:32:29.490Z,96949.00
2023-01-29T16:36:32.603Z,96952.00
2023-01-29T16:40:40.516Z,96952.00
2023-01-29T16:44:52.162Z,96948.00
2023-01-29T16:48:55.746Z,96949.00
2023-01-29T16:53:03.411Z,96958.00
2023-01-29T16:57:07.289Z,96966.00
2023-01-29T17:01:13.589Z,96968.00
2023-01-29T17:05:23.478Z,96956.00
2023-01-29T17:09:30.722Z,96950.00
2023-01-29T17:13:46.888Z,96952.00
2023-01-29T17:17:57.094Z,96957.00
2023-01-29T17:22:08.426Z,96959.00
2023-01-29T17:26:17.143Z,96953.00
2023-01-29T17:30:24.241Z,96959.00
2023-01-29T17:34:29.021Z,96955.00
2023-01-29T17:38:33.314Z,96966.00
2023-01-29T17:42:43.822Z,96973.00
2023-01-29T17:46:51.813Z,96964.00
2023-01-29T17:50:58.794Z,96954.00
2023-01-29T17:55:05.892Z,96960.00
2023-01-29T17:59:18.240Z,96955.00
2023-01-29T18:03:22.312Z,96958.00
2023-01-29T18:07:29.162Z,96955.00
2023-01-29T18:11:33.572Z,96949.00
2023-01-29T18:15:38.846Z,96946.00
2023-01-29T18:19:42.007Z,96936.00
2023-01-29T18:23:48.222Z,96933.00
2023-01-29T18:27:53.938Z,96920.00
2023-01-29T18:32:02.486Z,96917.00
2023-01-29T18:36:07.858Z,96918.00
2023-01-29T18:40:17.115Z,96918.00
2023-01-29T18:44:20.621Z,96919.00
2023-01-29T18:48:26.430Z,96920.00
2023-01-29T18:52:29.451Z,96919.00
2023-01-29T18:57:08.608Z,96917.00
2023-01-29T19:01:09.418Z,96919.00
2023-01-29T19:05:12.960Z,96916.00
2023-01-29T19:09:16.308Z,96928.00
2023-01-29T19:13:21.162Z,96930.00
2023-01-29T19:17:27.159Z,96915.00
2023-01-29T19:21:35.888Z,96923.00
2023-01-29T19:25:39.561Z,96922.00
2023-01-29T19:29:44.019Z,96931.00
2023-01-29T19:33:47.439Z,96931.00
2023-01-29T19:37:53.607Z,96931.00
2023-01-29T19:41:57.056Z,96928.00
2023-01-29T19:46:05.077Z,96933.00
2023-01-29T19:50:16.846Z,96943.00
2023-01-29T19:54:23.285Z,96937.00
2023-01-29T19:58:26.586Z,96937.00
2023-01-29T20:02:35.536Z,96940.00
2023-01-29T20:06:38.711Z,96934.00
2023-01-29T20:10:46.694Z,96921.00
2023-01-29T20:14:50.758Z,96916.00
2023-01-29T20:18:56.224Z,96916.00
2023-01-29T20:23:35.294Z,96920.00
2023-01-29T20:27:39.970Z,96917.00
2023-01-29T20:31:43.142Z,96903.00
2023-01-29T20:35:53.920Z,96898.00
2023-01-29T20:39:58.878Z,96894.00
2023-01-29T20:44:01.907Z,96900.00
2023-01-29T20:48:06.305Z,96896.00
2023-01-29T20:52:11.435Z,96882.00
2023-01-29T20:56:16.265Z,96876.00
2023-01-29T21:00:25.116Z,96870.00
2023-01-29T21:04:31.318Z,96863.00
2023-01-29T21:08:39.273Z,96858.00
2023-01-29T21:12:43.582Z,96846.00
2023-01-29T21:16:46.595Z,96849.00
2023-01-29T21:20:51.180Z,96840.00
2023-01-29T21:24:58.938Z,96835.00
2023-01-29T21:29:05.424Z,96829.00
2023-01-29T21:33:09.429Z,96818.00
2023-01-29T21:37:15.187Z,96824.00
2023-01-29T21:41:40.673Z,96829.00
2023-01-29T21:45:44.443Z,96838.00
2023-01-29T21:49:47.903Z,96842.00
2023-01-29T21:53:59.785Z,96848.00
2023-01-29T21:58:04.453Z,96843.00
2023-01-29T22:02:14.485Z,96856.00
2023-01-29T22:06:18.015Z,96849.00
2023-01-29T22:10:23.830Z,96859.00
2023-01-29T22:14:30.511Z,96848.00
2023-01-29T22:18:35.269Z,96844.00
2023-01-29T22:22:38.413Z,96847.00
2023-01-29T22:26:42.892Z,96850.00
2023-01-29T22:30:49.943Z,96843.00
2023-01-29T22:34:54.528Z,96838.00
2023-01-29T22:38:58.263Z,96840.00
2023-01-29T22:43:03.375Z,96834.00
2023-01-29T22:47:10.799Z,96826.00
2023-01-29T22:51:16.922Z,96817.00
2023-01-29T22:55:20.044Z,96807.00
2023-01-29T22:59:30.157Z,96795.00
2023-01-29T23:03:35.813Z,96790.00
2023-01-29T23:07:38.892Z,96767.00
2023-01-29T23:11:44.240Z,96769.00
2023-01-29T23:15:48.275Z,96761.00
2023-01-29T23:19:53.187Z,96756.00
2023-01-29T23:23:58.534Z,96755.00
2023-01-29T23:28:03.538Z,96751.00
2023-01-29T23:32:07.986Z,96734.00
2023-01-29T23:36:15.981Z,96725.00
2023-01-29T23:40:19.487Z,96709.00
2023-01-29T23:44:23.360Z,96695.00
2023-01-29T23:48:29.441Z,96672.00
2023-01-29T23:52:33.831Z,96669.00
2023-01-29T23:56:37.257Z,96663.00
